HISTORICAL SENSOR DATA

Sensor Data Report

DB LIVE
CURRENT TIME--:--:--
DEVICE NETWORK Gateway Status
13 ESP · realtime ~1s · history 60s
Weather WS-MOD-01
OFFLINE
Actuator ACT-MOD-01
OFFLINE
Mainboard L3 MB-L3-01
OFFLINE
Mainboard L5 MB-L5-01
OFFLINE
Remote AC AC-REMOTE-01
OFFLINE
PZEM L3-01 PWR-L3-01
OFFLINE
PZEM L3-02 PWR-L3-02
OFFLINE
PZEM L3-03 PWR-L3-03
OFFLINE
PZEM L3-04 PWR-L3-04
OFFLINE
PZEM L5-01 PWR-L5-01
OFFLINE
PZEM L5-02 PWR-L5-02
OFFLINE
PZEM L5-03 PWR-L5-03
OFFLINE
PZEM L5-04 PWR-L5-04
OFFLINE
REPORT FILTER

Periode & Sensor

DATABASE HISTORY
RESET
QUICK RANGE Hari ini 7 hari 30 hari
PERIODE08 Aug 2026sampai 06 Sep 2026
TOTAL DATA43,385sensor readings
MINIMUM-0.50sesuai filter
AVERAGE85.21sesuai filter
MAXIMUM32,564.20sesuai filter
REPORT RESULT

Data Sensor

08/08/2026 — 06/09/2026 EXPORT CSV
NOTANGGALWAKTUDEVICECHANNELSENSORVALUEUNIT
2101 06/09/2026 10:54:00 MB-L5-01Mainboard Lantai 5 L5-ST-01 Surface Temperature 1 28.30 °C
2102 06/09/2026 10:36:00 MB-L5-01Mainboard Lantai 5 L5-SHT-03-T SHT20 3 Temperature 29.60 °C
2103 06/09/2026 10:36:00 MB-L5-01Mainboard Lantai 5 L5-LUX-02 Illuminance / LUX 2 2,504.90 lux
2104 06/09/2026 10:36:00 MB-L5-01Mainboard Lantai 5 L5-HFT-02 Heat Flow Temperature 2 28.00 °C
2105 06/09/2026 10:36:00 MB-L5-01Mainboard Lantai 5 L5-SHT-02-T SHT20 2 Temperature 29.40 °C
2106 06/09/2026 10:36:00 MB-L5-01Mainboard Lantai 5 L5-ST-02 Surface Temperature 2 30.60 °C
2107 06/09/2026 10:36:00 MB-L5-01Mainboard Lantai 5 L5-SHT-02-RH SHT20 2 Humidity 38.60 %RH
2108 06/09/2026 10:36:00 MB-L5-01Mainboard Lantai 5 L5-RAD-02 Radiation 2 4.00 W/m²
2109 06/09/2026 10:36:00 MB-L5-01Mainboard Lantai 5 L5-LUX-05 Illuminance / LUX 5 1,858.80 lux
2110 06/09/2026 10:36:00 MB-L5-01Mainboard Lantai 5 L5-SHT-01-T SHT20 1 Temperature 30.30 °C
2111 06/09/2026 10:36:00 MB-L5-01Mainboard Lantai 5 L5-RAD-01 Radiation 1 4.00 W/m²
2112 06/09/2026 10:36:00 MB-L5-01Mainboard Lantai 5 L5-BGT-01 Black Globe Temperature 1 27.50 °C
2113 06/09/2026 10:36:00 MB-L5-01Mainboard Lantai 5 L5-BGT-03 Black Globe Temperature 3 27.70 °C
2114 06/09/2026 10:36:00 MB-L5-01Mainboard Lantai 5 L5-AI-02 Analog Input 2 3.05 V
2115 06/09/2026 10:36:00 MB-L5-01Mainboard Lantai 5 L5-AI-06 Analog Input 6 3.05 V
2116 06/09/2026 10:36:00 MB-L5-01Mainboard Lantai 5 L5-LUX-01 Illuminance / LUX 1 613.20 lux
2117 06/09/2026 10:36:00 MB-L5-01Mainboard Lantai 5 L5-AI-04 Analog Input 4 3.05 V
2118 06/09/2026 10:36:00 MB-L5-01Mainboard Lantai 5 L5-HFT-01 Heat Flow Temperature 1 29.00 °C
2119 06/09/2026 10:36:00 MB-L5-01Mainboard Lantai 5 L5-ST-01 Surface Temperature 1 28.50 °C
2120 06/09/2026 10:36:00 MB-L5-01Mainboard Lantai 5 L5-BGT-02 Black Globe Temperature 2 27.30 °C
2121 06/09/2026 10:36:00 MB-L5-01Mainboard Lantai 5 L5-AI-01 Analog Input 1 3.05 V
2122 06/09/2026 10:36:00 MB-L5-01Mainboard Lantai 5 L5-AI-05 Analog Input 5 3.05 V
2123 06/09/2026 10:36:00 MB-L5-01Mainboard Lantai 5 L5-AI-03 Analog Input 3 3.05 V
2124 06/09/2026 10:36:00 MB-L5-01Mainboard Lantai 5 L5-LUX-03 Illuminance / LUX 3 971.50 lux
2125 06/09/2026 10:36:00 MB-L5-01Mainboard Lantai 5 L5-SHT-01-RH SHT20 1 Humidity 37.30 %RH
2126 06/09/2026 10:36:00 MB-L5-01Mainboard Lantai 5 L5-SHT-03-RH SHT20 3 Humidity 38.50 %RH
2127 06/09/2026 10:35:00 MB-L5-01Mainboard Lantai 5 L5-BGT-01 Black Globe Temperature 1 27.50 °C
2128 06/09/2026 10:35:00 MB-L5-01Mainboard Lantai 5 L5-BGT-03 Black Globe Temperature 3 27.60 °C
2129 06/09/2026 10:35:00 MB-L5-01Mainboard Lantai 5 L5-AI-02 Analog Input 2 3.05 V
2130 06/09/2026 10:35:00 MB-L5-01Mainboard Lantai 5 L5-AI-06 Analog Input 6 3.05 V
2131 06/09/2026 10:35:00 MB-L5-01Mainboard Lantai 5 L5-LUX-01 Illuminance / LUX 1 611.50 lux
2132 06/09/2026 10:35:00 MB-L5-01Mainboard Lantai 5 L5-AI-04 Analog Input 4 3.05 V
2133 06/09/2026 10:35:00 MB-L5-01Mainboard Lantai 5 L5-HFT-01 Heat Flow Temperature 1 29.00 °C
2134 06/09/2026 10:35:00 MB-L5-01Mainboard Lantai 5 L5-ST-01 Surface Temperature 1 28.40 °C
2135 06/09/2026 10:35:00 MB-L5-01Mainboard Lantai 5 L5-BGT-02 Black Globe Temperature 2 27.20 °C
2136 06/09/2026 10:35:00 MB-L5-01Mainboard Lantai 5 L5-AI-01 Analog Input 1 3.05 V
2137 06/09/2026 10:35:00 MB-L5-01Mainboard Lantai 5 L5-AI-05 Analog Input 5 3.05 V
2138 06/09/2026 10:35:00 MB-L5-01Mainboard Lantai 5 L5-AI-03 Analog Input 3 3.05 V
2139 06/09/2026 10:35:00 MB-L5-01Mainboard Lantai 5 L5-LUX-03 Illuminance / LUX 3 969.00 lux
2140 06/09/2026 10:35:00 MB-L5-01Mainboard Lantai 5 L5-SHT-01-RH SHT20 1 Humidity 37.20 %RH
2141 06/09/2026 10:35:00 MB-L5-01Mainboard Lantai 5 L5-SHT-03-RH SHT20 3 Humidity 38.50 %RH
2142 06/09/2026 10:35:00 MB-L5-01Mainboard Lantai 5 L5-SHT-03-T SHT20 3 Temperature 29.60 °C
2143 06/09/2026 10:35:00 MB-L5-01Mainboard Lantai 5 L5-LUX-02 Illuminance / LUX 2 2,498.10 lux
2144 06/09/2026 10:35:00 MB-L5-01Mainboard Lantai 5 L5-HFT-02 Heat Flow Temperature 2 27.80 °C
2145 06/09/2026 10:35:00 MB-L5-01Mainboard Lantai 5 L5-SHT-02-T SHT20 2 Temperature 29.40 °C
2146 06/09/2026 10:35:00 MB-L5-01Mainboard Lantai 5 L5-ST-02 Surface Temperature 2 30.60 °C
2147 06/09/2026 10:35:00 MB-L5-01Mainboard Lantai 5 L5-SHT-02-RH SHT20 2 Humidity 38.70 %RH
2148 06/09/2026 10:35:00 MB-L5-01Mainboard Lantai 5 L5-RAD-02 Radiation 2 4.00 W/m²
2149 06/09/2026 10:35:00 MB-L5-01Mainboard Lantai 5 L5-LUX-05 Illuminance / LUX 5 1,855.70 lux
2150 06/09/2026 10:35:00 MB-L5-01Mainboard Lantai 5 L5-SHT-01-T SHT20 1 Temperature 30.20 °C
2151 06/09/2026 10:35:00 MB-L5-01Mainboard Lantai 5 L5-RAD-01 Radiation 1 4.00 W/m²
2152 06/09/2026 10:34:00 MB-L5-01Mainboard Lantai 5 L5-HFT-01 Heat Flow Temperature 1 28.90 °C
2153 06/09/2026 10:34:00 MB-L5-01Mainboard Lantai 5 L5-ST-01 Surface Temperature 1 28.30 °C
2154 06/09/2026 10:34:00 MB-L5-01Mainboard Lantai 5 L5-BGT-02 Black Globe Temperature 2 27.20 °C
2155 06/09/2026 10:34:00 MB-L5-01Mainboard Lantai 5 L5-AI-01 Analog Input 1 3.05 V
2156 06/09/2026 10:34:00 MB-L5-01Mainboard Lantai 5 L5-AI-05 Analog Input 5 3.05 V
2157 06/09/2026 10:34:00 MB-L5-01Mainboard Lantai 5 L5-AI-03 Analog Input 3 3.05 V
2158 06/09/2026 10:34:00 MB-L5-01Mainboard Lantai 5 L5-LUX-03 Illuminance / LUX 3 971.10 lux
2159 06/09/2026 10:34:00 MB-L5-01Mainboard Lantai 5 L5-SHT-01-RH SHT20 1 Humidity 37.40 %RH
2160 06/09/2026 10:34:00 MB-L5-01Mainboard Lantai 5 L5-SHT-03-RH SHT20 3 Humidity 38.40 %RH
2161 06/09/2026 10:34:00 MB-L5-01Mainboard Lantai 5 L5-SHT-03-T SHT20 3 Temperature 29.70 °C
2162 06/09/2026 10:34:00 MB-L5-01Mainboard Lantai 5 L5-LUX-02 Illuminance / LUX 2 2,502.30 lux
2163 06/09/2026 10:34:00 MB-L5-01Mainboard Lantai 5 L5-HFT-02 Heat Flow Temperature 2 28.00 °C
2164 06/09/2026 10:34:00 MB-L5-01Mainboard Lantai 5 L5-SHT-02-T SHT20 2 Temperature 29.30 °C
2165 06/09/2026 10:34:00 MB-L5-01Mainboard Lantai 5 L5-ST-02 Surface Temperature 2 30.60 °C
2166 06/09/2026 10:34:00 MB-L5-01Mainboard Lantai 5 L5-SHT-02-RH SHT20 2 Humidity 38.90 %RH
2167 06/09/2026 10:34:00 MB-L5-01Mainboard Lantai 5 L5-RAD-02 Radiation 2 4.00 W/m²
2168 06/09/2026 10:34:00 MB-L5-01Mainboard Lantai 5 L5-LUX-05 Illuminance / LUX 5 1,855.60 lux
2169 06/09/2026 10:34:00 MB-L5-01Mainboard Lantai 5 L5-SHT-01-T SHT20 1 Temperature 30.20 °C
2170 06/09/2026 10:34:00 MB-L5-01Mainboard Lantai 5 L5-RAD-01 Radiation 1 4.00 W/m²
2171 06/09/2026 10:34:00 MB-L5-01Mainboard Lantai 5 L5-BGT-01 Black Globe Temperature 1 27.50 °C
2172 06/09/2026 10:34:00 MB-L5-01Mainboard Lantai 5 L5-BGT-03 Black Globe Temperature 3 27.60 °C
2173 06/09/2026 10:34:00 MB-L5-01Mainboard Lantai 5 L5-AI-02 Analog Input 2 3.05 V
2174 06/09/2026 10:34:00 MB-L5-01Mainboard Lantai 5 L5-AI-06 Analog Input 6 3.05 V
2175 06/09/2026 10:34:00 MB-L5-01Mainboard Lantai 5 L5-LUX-01 Illuminance / LUX 1 613.60 lux
2176 06/09/2026 10:34:00 MB-L5-01Mainboard Lantai 5 L5-AI-04 Analog Input 4 3.05 V
2177 06/09/2026 10:33:00 MB-L5-01Mainboard Lantai 5 L5-BGT-02 Black Globe Temperature 2 27.30 °C
2178 06/09/2026 10:33:00 MB-L5-01Mainboard Lantai 5 L5-AI-01 Analog Input 1 3.05 V
2179 06/09/2026 10:33:00 MB-L5-01Mainboard Lantai 5 L5-AI-05 Analog Input 5 3.05 V
2180 06/09/2026 10:33:00 MB-L5-01Mainboard Lantai 5 L5-AI-03 Analog Input 3 3.05 V
2181 06/09/2026 10:33:00 MB-L5-01Mainboard Lantai 5 L5-LUX-03 Illuminance / LUX 3 972.00 lux
2182 06/09/2026 10:33:00 MB-L5-01Mainboard Lantai 5 L5-SHT-01-RH SHT20 1 Humidity 37.60 %RH
2183 06/09/2026 10:33:00 MB-L5-01Mainboard Lantai 5 L5-SHT-03-RH SHT20 3 Humidity 38.40 %RH
2184 06/09/2026 10:33:00 MB-L5-01Mainboard Lantai 5 L5-SHT-03-T SHT20 3 Temperature 29.70 °C
2185 06/09/2026 10:33:00 MB-L5-01Mainboard Lantai 5 L5-LUX-02 Illuminance / LUX 2 2,504.10 lux
2186 06/09/2026 10:33:00 MB-L5-01Mainboard Lantai 5 L5-HFT-02 Heat Flow Temperature 2 28.30 °C
2187 06/09/2026 10:33:00 MB-L5-01Mainboard Lantai 5 L5-SHT-02-T SHT20 2 Temperature 29.30 °C
2188 06/09/2026 10:33:00 MB-L5-01Mainboard Lantai 5 L5-ST-02 Surface Temperature 2 30.60 °C
2189 06/09/2026 10:33:00 MB-L5-01Mainboard Lantai 5 L5-SHT-02-RH SHT20 2 Humidity 38.90 %RH
2190 06/09/2026 10:33:00 MB-L5-01Mainboard Lantai 5 L5-RAD-02 Radiation 2 4.00 W/m²
2191 06/09/2026 10:33:00 MB-L5-01Mainboard Lantai 5 L5-LUX-05 Illuminance / LUX 5 1,852.00 lux
2192 06/09/2026 10:33:00 MB-L5-01Mainboard Lantai 5 L5-SHT-01-T SHT20 1 Temperature 30.20 °C
2193 06/09/2026 10:33:00 MB-L5-01Mainboard Lantai 5 L5-RAD-01 Radiation 1 4.00 W/m²
2194 06/09/2026 10:33:00 MB-L5-01Mainboard Lantai 5 L5-BGT-01 Black Globe Temperature 1 27.60 °C
2195 06/09/2026 10:33:00 MB-L5-01Mainboard Lantai 5 L5-BGT-03 Black Globe Temperature 3 27.50 °C
2196 06/09/2026 10:33:00 MB-L5-01Mainboard Lantai 5 L5-AI-02 Analog Input 2 3.05 V
2197 06/09/2026 10:33:00 MB-L5-01Mainboard Lantai 5 L5-AI-06 Analog Input 6 3.05 V
2198 06/09/2026 10:33:00 MB-L5-01Mainboard Lantai 5 L5-LUX-01 Illuminance / LUX 1 614.80 lux
2199 06/09/2026 10:33:00 MB-L5-01Mainboard Lantai 5 L5-AI-04 Analog Input 4 3.05 V
2200 06/09/2026 10:33:00 MB-L5-01Mainboard Lantai 5 L5-HFT-01 Heat Flow Temperature 1 28.70 °C
Menampilkan maksimal 100 data per halaman